createdAt,value
2016-11-12T00:00:08.968Z,1021.76
2016-11-12T00:00:18.947Z,1021.75
2016-11-12T00:00:28.940Z,1021.81
2016-11-12T00:00:38.933Z,1021.75
2016-11-12T00:00:48.929Z,1021.77
2016-11-12T00:00:58.922Z,1021.73
2016-11-12T00:01:08.912Z,1021.75
2016-11-12T00:01:18.907Z,1021.8
2016-11-12T00:01:28.920Z,1021.76
2016-11-12T00:01:38.893Z,1021.8
2016-11-12T00:01:48.889Z,1021.73
2016-11-12T00:01:58.879Z,1021.73
2016-11-12T00:02:08.873Z,1021.72
2016-11-12T00:02:18.866Z,1021.75
2016-11-12T00:02:28.859Z,1021.75
2016-11-12T00:02:38.853Z,1021.79
2016-11-12T00:02:48.847Z,1021.76
2016-11-12T00:02:58.840Z,1021.79
2016-11-12T00:03:08.832Z,1021.76
2016-11-12T00:03:18.826Z,1021.8
2016-11-12T00:03:28.821Z,1021.82
2016-11-12T00:03:38.814Z,1021.77
2016-11-12T00:03:48.807Z,1021.79
2016-11-12T00:03:58.803Z,1021.79
2016-11-12T00:04:08.794Z,1021.77
2016-11-12T00:04:18.785Z,1021.8
2016-11-12T00:04:28.780Z,1021.73
2016-11-12T00:04:38.771Z,1021.8
2016-11-12T00:04:48.767Z,1021.82
2016-11-12T00:04:58.760Z,1021.77
2016-11-12T00:05:08.754Z,1021.73
2016-11-12T00:05:18.745Z,1021.75
2016-11-12T00:05:28.741Z,1021.76
2016-11-12T00:05:38.733Z,1021.79
2016-11-12T00:05:48.727Z,1021.81
2016-11-12T00:05:58.720Z,1021.81
2016-11-12T00:06:08.713Z,1021.8
2016-11-12T00:06:18.705Z,1021.77
2016-11-12T00:06:28.699Z,1021.8
2016-11-12T00:06:38.694Z,1021.82
2016-11-12T00:06:48.685Z,1021.8
2016-11-12T00:06:58.681Z,1021.79
2016-11-12T00:07:08.673Z,1021.78
2016-11-12T00:07:18.666Z,1021.79
2016-11-12T00:07:28.658Z,1021.8
2016-11-12T00:07:38.652Z,1021.8
2016-11-12T00:07:48.645Z,1021.81
2016-11-12T00:07:58.639Z,1021.8
2016-11-12T00:08:08.637Z,1021.79
2016-11-12T00:08:18.626Z,1021.82
2016-11-12T00:08:28.620Z,1021.8
2016-11-12T00:08:38.612Z,1021.78
2016-11-12T00:08:48.606Z,1021.82
2016-11-12T00:08:58.599Z,1021.79
2016-11-12T00:09:08.591Z,1021.78
2016-11-12T00:09:18.586Z,1021.75
2016-11-12T00:09:28.914Z,1021.76
2016-11-12T00:09:38.573Z,1021.79
2016-11-12T00:09:48.566Z,1021.82
2016-11-12T00:09:58.559Z,1021.81
2016-11-12T00:10:08.552Z,1021.78
2016-11-12T00:10:18.544Z,1021.8
2016-11-12T00:10:28.540Z,1021.8
2016-11-12T00:10:38.531Z,1021.78
2016-11-12T00:10:48.526Z,1021.79
2016-11-12T00:10:58.520Z,1021.82
2016-11-12T00:11:08.512Z,1021.84
2016-11-12T00:11:18.504Z,1021.81
2016-11-12T00:11:28.498Z,1021.77
2016-11-12T00:11:38.491Z,1021.8
2016-11-12T00:11:48.485Z,1021.79
2016-11-12T00:11:58.478Z,1021.83
2016-11-12T00:12:08.472Z,1021.82
2016-11-12T00:12:18.465Z,1021.81
2016-11-12T00:12:28.459Z,1021.81
2016-11-12T00:12:38.451Z,1021.8
2016-11-12T00:12:48.445Z,1021.87
2016-11-12T00:12:58.439Z,1021.82
2016-11-12T00:13:08.432Z,1021.78
2016-11-12T00:13:18.424Z,1021.82
2016-11-12T00:13:28.418Z,1021.83
2016-11-12T00:13:38.410Z,1021.82
2016-11-12T00:13:48.405Z,1021.84
2016-11-12T00:13:58.398Z,1021.81
2016-11-12T00:14:08.726Z,1021.79
2016-11-12T00:14:18.387Z,1021.85
2016-11-12T00:14:28.377Z,1021.88
2016-11-12T00:14:38.371Z,1021.83
2016-11-12T00:14:48.365Z,1021.82
2016-11-12T00:14:58.359Z,1021.87
2016-11-12T00:15:08.351Z,1021.85
2016-11-12T00:15:18.346Z,1021.75
2016-11-12T00:15:28.337Z,1021.79
2016-11-12T00:15:38.328Z,1021.79
2016-11-12T00:15:48.323Z,1021.84
2016-11-12T00:15:58.317Z,1021.8
2016-11-12T00:16:08.310Z,1021.81
2016-11-12T00:16:18.303Z,1021.82
2016-11-12T00:16:28.297Z,1021.8
2016-11-12T00:16:38.290Z,1021.83
2016-11-12T00:16:48.283Z,1021.82
2016-11-12T00:16:58.277Z,1021.82
2016-11-12T00:17:08.270Z,1021.8
2016-11-12T00:17:18.265Z,1021.8
2016-11-12T00:17:28.257Z,1021.79
2016-11-12T00:17:38.250Z,1021.75
2016-11-12T00:17:48.244Z,1021.8
2016-11-12T00:17:58.236Z,1021.8
2016-11-12T00:18:08.230Z,1021.83
2016-11-12T00:18:18.224Z,1021.78
2016-11-12T00:18:28.215Z,1021.78
2016-11-12T00:18:38.210Z,1021.74
2016-11-12T00:18:48.204Z,1021.76
2016-11-12T00:18:58.197Z,1021.77
2016-11-12T00:19:08.190Z,1021.76
2016-11-12T00:19:18.521Z,1021.76
2016-11-12T00:19:28.177Z,1021.75
2016-11-12T00:19:38.170Z,1021.8
2016-11-12T00:19:48.160Z,1021.82
2016-11-12T00:19:58.155Z,1021.78
2016-11-12T00:20:08.151Z,1021.8
2016-11-12T00:20:18.143Z,1021.8
2016-11-12T00:20:28.137Z,1021.83
2016-11-12T00:20:38.129Z,1021.78
2016-11-12T00:20:48.121Z,1021.81
2016-11-12T00:20:58.116Z,1021.79
2016-11-12T00:21:08.109Z,1021.79
2016-11-12T00:21:18.103Z,1021.76
2016-11-12T00:21:28.097Z,1021.77
2016-11-12T00:21:38.090Z,1021.78
2016-11-12T00:21:48.083Z,1021.81
2016-11-12T00:21:58.076Z,1021.74
2016-11-12T00:22:08.070Z,1021.78
2016-11-12T00:22:18.063Z,1021.79
2016-11-12T00:22:28.057Z,1021.78
2016-11-12T00:22:38.048Z,1021.79
2016-11-12T00:22:48.043Z,1021.75
2016-11-12T00:22:58.035Z,1021.83
2016-11-12T00:23:08.029Z,1021.8
2016-11-12T00:23:18.022Z,1021.72
2016-11-12T00:23:28.016Z,1021.76
2016-11-12T00:23:38.030Z,1021.74
2016-11-12T00:23:48.004Z,1021.72
2016-11-12T00:23:57.995Z,1021.73
2016-11-12T00:24:07.990Z,1021.73
2016-11-12T00:24:17.982Z,1021.73
2016-11-12T00:24:27.976Z,1021.73
2016-11-12T00:24:37.969Z,1021.75
2016-11-12T00:24:47.960Z,1021.76
2016-11-12T00:24:57.959Z,1021.73
2016-11-12T00:25:07.949Z,1021.71
2016-11-12T00:25:17.942Z,1021.75
2016-11-12T00:25:27.935Z,1021.73
2016-11-12T00:25:37.929Z,1021.76
2016-11-12T00:25:47.921Z,1021.78
2016-11-12T00:25:57.914Z,1021.79
2016-11-12T00:26:07.908Z,1021.76
2016-11-12T00:26:17.909Z,1021.73
2016-11-12T00:26:27.896Z,1021.73
2016-11-12T00:26:37.889Z,1021.81
2016-11-12T00:26:47.881Z,1021.73
2016-11-12T00:26:57.874Z,1021.76
2016-11-12T00:27:07.870Z,1021.74
2016-11-12T00:27:17.860Z,1021.8
2016-11-12T00:27:27.854Z,1021.78
2016-11-12T00:27:37.846Z,1021.75
2016-11-12T00:27:47.841Z,1021.78
2016-11-12T00:27:57.854Z,1021.77
2016-11-12T00:28:07.829Z,1021.75
2016-11-12T00:28:17.821Z,1021.76
2016-11-12T00:28:27.814Z,1021.82
2016-11-12T00:28:37.807Z,1021.83
2016-11-12T00:28:47.802Z,1021.72
2016-11-12T00:28:57.795Z,1021.8
2016-11-12T00:29:07.821Z,1021.69
2016-11-12T00:29:17.782Z,1021.78
2016-11-12T00:29:27.775Z,1021.71
2016-11-12T00:29:37.767Z,1021.74
2016-11-12T00:29:47.762Z,1021.76
2016-11-12T00:29:57.752Z,1021.74
2016-11-12T00:30:07.747Z,1021.73
2016-11-12T00:30:17.741Z,1021.76
2016-11-12T00:30:27.732Z,1021.71
2016-11-12T00:30:37.727Z,1021.78
2016-11-12T00:30:47.721Z,1021.75
2016-11-12T00:30:57.713Z,1021.73
2016-11-12T00:31:07.705Z,1021.77
2016-11-12T00:31:18.034Z,1021.77
2016-11-12T00:31:27.693Z,1021.75
2016-11-12T00:31:37.686Z,1021.67
2016-11-12T00:31:47.680Z,1021.74
2016-11-12T00:31:57.672Z,1021.73
2016-11-12T00:32:07.667Z,1021.73
2016-11-12T00:32:17.659Z,1021.66
2016-11-12T00:32:27.654Z,1021.73
2016-11-12T00:32:37.646Z,1021.77
2016-11-12T00:32:47.641Z,1021.7
2016-11-12T00:32:57.632Z,1021.72
2016-11-12T00:33:07.624Z,1021.72
2016-11-12T00:33:17.619Z,1021.67
2016-11-12T00:33:27.613Z,1021.72
2016-11-12T00:33:37.605Z,1021.74
2016-11-12T00:33:47.599Z,1021.76
2016-11-12T00:33:57.591Z,1021.77
2016-11-12T00:34:07.920Z,1021.75
2016-11-12T00:34:17.579Z,1021.71
2016-11-12T00:34:27.572Z,1021.71
2016-11-12T00:34:37.670Z,1021.71
2016-11-12T00:34:47.560Z,1021.68
2016-11-12T00:34:57.551Z,1021.67
2016-11-12T00:35:07.546Z,1021.75
2016-11-12T00:35:17.538Z,1021.72
2016-11-12T00:35:27.532Z,1021.73
2016-11-12T00:35:37.526Z,1021.75
2016-11-12T00:35:47.519Z,1021.67
2016-11-12T00:35:57.513Z,1021.68
2016-11-12T00:36:07.506Z,1021.7
2016-11-12T00:36:17.834Z,1021.71
2016-11-12T00:36:27.492Z,1021.72
2016-11-12T00:36:37.483Z,1021.75
2016-11-12T00:36:47.478Z,1021.78
2016-11-12T00:36:57.471Z,1021.7
2016-11-12T00:37:07.463Z,1021.69
2016-11-12T00:37:17.458Z,1021.67
2016-11-12T00:37:27.452Z,1021.72
2016-11-12T00:37:37.445Z,1021.7
2016-11-12T00:37:47.438Z,1021.73
2016-11-12T00:37:57.432Z,1021.71
2016-11-12T00:38:07.444Z,1021.72
2016-11-12T00:38:17.416Z,1021.73
2016-11-12T00:38:27.410Z,1021.73
2016-11-12T00:38:37.405Z,1021.74
2016-11-12T00:38:47.399Z,1021.7
2016-11-12T00:38:57.390Z,1021.71
2016-11-12T00:39:07.385Z,1021.68
2016-11-12T00:39:17.377Z,1021.68
2016-11-12T00:39:27.370Z,1021.65
2016-11-12T00:39:37.364Z,1021.68
2016-11-12T00:39:47.358Z,1021.7
2016-11-12T00:39:57.351Z,1021.65
2016-11-12T00:40:07.344Z,1021.69
2016-11-12T00:40:17.336Z,1021.67
2016-11-12T00:40:27.330Z,1021.65
2016-11-12T00:40:37.323Z,1021.64
2016-11-12T00:40:47.318Z,1021.63
2016-11-12T00:40:57.311Z,1021.7
2016-11-12T00:41:07.304Z,1021.64
2016-11-12T00:41:17.296Z,1021.65
2016-11-12T00:41:27.290Z,1021.66
2016-11-12T00:41:37.283Z,1021.66
2016-11-12T00:41:47.276Z,1021.7
2016-11-12T00:41:57.269Z,1021.64
2016-11-12T00:42:07.263Z,1021.67
2016-11-12T00:42:17.257Z,1021.66
2016-11-12T00:42:27.249Z,1021.72
2016-11-12T00:42:37.243Z,1021.72
2016-11-12T00:42:47.236Z,1021.63
2016-11-12T00:42:57.229Z,1021.7
2016-11-12T00:43:07.224Z,1021.69
2016-11-12T00:43:17.215Z,1021.63
2016-11-12T00:43:27.208Z,1021.66
2016-11-12T00:43:37.203Z,1021.64
2016-11-12T00:43:47.225Z,1021.72
2016-11-12T00:43:57.189Z,1021.67
2016-11-12T00:44:07.183Z,1021.73
2016-11-12T00:44:17.196Z,1021.66
2016-11-12T00:44:27.169Z,1021.73
2016-11-12T00:44:37.162Z,1021.69
2016-11-12T00:44:47.156Z,1021.67
2016-11-12T00:44:57.150Z,1021.68
2016-11-12T00:45:07.144Z,1021.7
2016-11-12T00:45:17.135Z,1021.66
2016-11-12T00:45:27.131Z,1021.63
2016-11-12T00:45:37.123Z,1021.7
2016-11-12T00:45:47.115Z,1021.69
2016-11-12T00:45:57.108Z,1021.68
2016-11-12T00:46:07.101Z,1021.66
2016-11-12T00:46:17.096Z,1021.65
2016-11-12T00:46:27.088Z,1021.66
2016-11-12T00:46:37.081Z,1021.66
2016-11-12T00:46:47.075Z,1021.69
2016-11-12T00:46:57.068Z,1021.64
2016-11-12T00:47:07.063Z,1021.64
2016-11-12T00:47:17.057Z,1021.65
2016-11-12T00:47:27.048Z,1021.68
2016-11-12T00:47:37.041Z,1021.67
2016-11-12T00:47:47.034Z,1021.7
2016-11-12T00:47:57.027Z,1021.68
2016-11-12T00:48:07.022Z,1021.65
2016-11-12T00:48:17.016Z,1021.67
2016-11-12T00:48:27.007Z,1021.71
2016-11-12T00:48:37.027Z,1021.67
2016-11-12T00:48:46.994Z,1021.69
2016-11-12T00:48:56.987Z,1021.7
2016-11-12T00:49:06.980Z,1021.71
2016-11-12T00:49:16.974Z,1021.7
2016-11-12T00:49:26.967Z,1021.71
2016-11-12T00:49:36.961Z,1021.67
2016-11-12T00:49:46.954Z,1021.66
2016-11-12T00:49:56.946Z,1021.67
2016-11-12T00:50:06.940Z,1021.64
2016-11-12T00:50:16.934Z,1021.64
2016-11-12T00:50:26.926Z,1021.63
2016-11-12T00:50:36.920Z,1021.72
2016-11-12T00:50:46.913Z,1021.63
2016-11-12T00:50:56.925Z,1021.65
2016-11-12T00:51:06.901Z,1021.63
2016-11-12T00:51:16.892Z,1021.66
2016-11-12T00:51:26.886Z,1021.67
2016-11-12T00:51:36.880Z,1021.63
2016-11-12T00:51:46.874Z,1021.69
2016-11-12T00:51:56.866Z,1021.68
2016-11-12T00:52:06.860Z,1021.69
2016-11-12T00:52:16.853Z,1021.62
2016-11-12T00:52:26.846Z,1021.68
2016-11-12T00:52:36.838Z,1021.67
2016-11-12T00:52:46.831Z,1021.73
2016-11-12T00:52:56.826Z,1021.67
2016-11-12T00:53:06.820Z,1021.72
2016-11-12T00:53:16.812Z,1021.75
2016-11-12T00:53:26.806Z,1021.68
2016-11-12T00:53:36.797Z,1021.67
2016-11-12T00:53:46.792Z,1021.66
2016-11-12T00:53:56.785Z,1021.67
2016-11-12T00:54:06.778Z,1021.74
2016-11-12T00:54:16.772Z,1021.71
2016-11-12T00:54:26.766Z,1021.71
2016-11-12T00:54:36.758Z,1021.71
2016-11-12T00:54:46.752Z,1021.71
2016-11-12T00:54:56.745Z,1021.73
2016-11-12T00:55:06.739Z,1021.69
2016-11-12T00:55:16.732Z,1021.65
2016-11-12T00:55:26.725Z,1021.72
2016-11-12T00:55:36.717Z,1021.71
2016-11-12T00:55:46.711Z,1021.68
2016-11-12T00:55:56.703Z,1021.69
2016-11-12T00:56:06.698Z,1021.72
2016-11-12T00:56:16.690Z,1021.67
2016-11-12T00:56:26.684Z,1021.7
2016-11-12T00:56:36.677Z,1021.67
2016-11-12T00:56:46.672Z,1021.69
2016-11-12T00:56:56.665Z,1021.77
2016-11-12T00:57:06.658Z,1021.76
2016-11-12T00:57:16.651Z,1021.74
2016-11-12T00:57:26.646Z,1021.76
2016-11-12T00:57:36.637Z,1021.71
2016-11-12T00:57:46.630Z,1021.7
2016-11-12T00:57:56.623Z,1021.69
2016-11-12T00:58:06.617Z,1021.73
2016-11-12T00:58:16.610Z,1021.72
2016-11-12T00:58:26.603Z,1021.76
2016-11-12T00:58:36.597Z,1021.69
2016-11-12T00:58:46.592Z,1021.7
2016-11-12T00:58:56.583Z,1021.7
2016-11-12T00:59:06.577Z,1021.74
2016-11-12T00:59:16.569Z,1021.76
2016-11-12T00:59:26.563Z,1021.73
2016-11-12T00:59:36.558Z,1021.75
2016-11-12T00:59:46.549Z,1021.72
2016-11-12T00:59:56.544Z,1021.75
2016-11-12T01:00:06.536Z,1021.67
2016-11-12T01:00:16.528Z,1021.74
2016-11-12T01:00:26.525Z,1021.74
2016-11-12T01:00:36.517Z,1021.71
2016-11-12T01:00:46.508Z,1021.71
2016-11-12T01:00:56.502Z,1021.76
2016-11-12T01:01:06.497Z,1021.7
2016-11-12T01:01:16.489Z,1021.72
2016-11-12T01:01:26.484Z,1021.7
2016-11-12T01:01:36.477Z,1021.7
2016-11-12T01:01:46.471Z,1021.64
2016-11-12T01:01:56.463Z,1021.7
2016-11-12T01:02:06.456Z,1021.73
2016-11-12T01:02:16.449Z,1021.75
2016-11-12T01:02:26.443Z,1021.69
2016-11-12T01:02:36.436Z,1021.71
2016-11-12T01:02:46.429Z,1021.77
2016-11-12T01:02:56.421Z,1021.74
2016-11-12T01:03:06.414Z,1021.76
2016-11-12T01:03:16.408Z,1021.65
2016-11-12T01:03:26.401Z,1021.73
2016-11-12T01:03:36.397Z,1021.69
2016-11-12T01:03:46.402Z,1021.74
2016-11-12T01:03:56.381Z,1021.71
2016-11-12T01:04:06.381Z,1021.7
2016-11-12T01:04:16.368Z,1021.72
2016-11-12T01:04:26.362Z,1021.7
2016-11-12T01:04:36.353Z,1021.72
2016-11-12T01:04:46.347Z,1021.72
2016-11-12T01:04:56.449Z,1021.69
2016-11-12T01:05:06.334Z,1021.72
2016-11-12T01:05:16.327Z,1021.68
2016-11-12T01:05:26.321Z,1021.7
2016-11-12T01:05:36.315Z,1021.73
2016-11-12T01:05:46.308Z,1021.69
2016-11-12T01:05:56.300Z,1021.72
2016-11-12T01:06:06.294Z,1021.68
2016-11-12T01:06:16.287Z,1021.67
2016-11-12T01:06:26.280Z,1021.69
2016-11-12T01:06:36.276Z,1021.76
2016-11-12T01:06:46.272Z,1021.76
2016-11-12T01:06:56.258Z,1021.74
2016-11-12T01:07:06.255Z,1021.7
2016-11-12T01:07:16.247Z,1021.76
2016-11-12T01:07:26.242Z,1021.72
2016-11-12T01:07:36.235Z,1021.74
2016-11-12T01:07:46.251Z,1021.74
2016-11-12T01:07:56.220Z,1021.72
2016-11-12T01:08:06.213Z,1021.73
2016-11-12T01:08:16.207Z,1021.69
2016-11-12T01:08:26.201Z,1021.71
2016-11-12T01:08:36.192Z,1021.71
2016-11-12T01:08:46.187Z,1021.69
2016-11-12T01:08:56.178Z,1021.75
2016-11-12T01:09:06.172Z,1021.73
2016-11-12T01:09:16.166Z,1021.73
2016-11-12T01:09:26.160Z,1021.71
2016-11-12T01:09:36.152Z,1021.69
2016-11-12T01:09:46.147Z,1021.68
2016-11-12T01:09:56.138Z,1021.74
2016-11-12T01:10:06.133Z,1021.75
2016-11-12T01:10:16.126Z,1021.67
2016-11-12T01:10:26.117Z,1021.74
2016-11-12T01:10:36.132Z,1021.68
2016-11-12T01:10:46.108Z,1021.7
2016-11-12T01:10:56.099Z,1021.72
2016-11-12T01:11:06.090Z,1021.7
2016-11-12T01:11:16.085Z,1021.74
2016-11-12T01:11:26.078Z,1021.71
2016-11-12T01:11:36.072Z,1021.72
2016-11-12T01:11:46.063Z,1021.74
2016-11-12T01:11:56.059Z,1021.79
2016-11-12T01:12:06.052Z,1021.75
2016-11-12T01:12:16.043Z,1021.75
2016-11-12T01:12:26.038Z,1021.71
2016-11-12T01:12:36.031Z,1021.72
2016-11-12T01:12:46.023Z,1021.73
2016-11-12T01:12:56.017Z,1021.71
2016-11-12T01:13:06.010Z,1021.73
2016-11-12T01:13:16.106Z,1021.75
2016-11-12T01:13:25.997Z,1021.75
2016-11-12T01:13:35.989Z,1021.78
2016-11-12T01:13:45.984Z,1021.73
2016-11-12T01:13:55.976Z,1021.77
2016-11-12T01:14:05.971Z,1021.74
2016-11-12T01:14:15.961Z,1021.74
2016-11-12T01:14:25.957Z,1021.74
2016-11-12T01:14:35.950Z,1021.75
2016-11-12T01:14:45.942Z,1021.77
2016-11-12T01:14:55.936Z,1021.72
2016-11-12T01:15:05.928Z,1021.73
2016-11-12T01:15:15.922Z,1021.77
2016-11-12T01:15:25.918Z,1021.77
2016-11-12T01:15:35.937Z,1021.8
2016-11-12T01:15:45.902Z,1021.74
2016-11-12T01:15:55.895Z,1021.77
2016-11-12T01:16:05.890Z,1021.75
2016-11-12T01:16:15.883Z,1021.82
2016-11-12T01:16:25.875Z,1021.8
2016-11-12T01:16:35.868Z,1021.75
2016-11-12T01:16:45.862Z,1021.79
2016-11-12T01:16:55.855Z,1021.77
2016-11-12T01:17:05.848Z,1021.8
2016-11-12T01:17:15.841Z,1021.78
2016-11-12T01:17:25.836Z,1021.75
2016-11-12T01:17:35.828Z,1021.77
2016-11-12T01:17:45.822Z,1021.76
2016-11-12T01:17:55.814Z,1021.74
2016-11-12T01:18:05.808Z,1021.8
2016-11-12T01:18:15.799Z,1021.75
2016-11-12T01:18:25.794Z,1021.75
2016-11-12T01:18:35.789Z,1021.75
2016-11-12T01:18:45.782Z,1021.74
2016-11-12T01:18:55.776Z,1021.73
2016-11-12T01:19:05.768Z,1021.76
2016-11-12T01:19:15.758Z,1021.73
2016-11-12T01:19:25.753Z,1021.73
2016-11-12T01:19:35.747Z,1021.74
2016-11-12T01:19:45.740Z,1021.75
2016-11-12T01:19:55.735Z,1021.68
2016-11-12T01:20:05.726Z,1021.69
2016-11-12T01:20:15.719Z,1021.69
2016-11-12T01:20:25.715Z,1021.66
2016-11-12T01:20:35.706Z,1021.66
2016-11-12T01:20:45.806Z,1021.68
2016-11-12T01:20:56.027Z,1021.76
2016-11-12T01:21:05.687Z,1021.74
2016-11-12T01:21:15.677Z,1021.69
2016-11-12T01:21:25.672Z,1021.67
2016-11-12T01:21:35.665Z,1021.71
2016-11-12T01:21:45.661Z,1021.71
2016-11-12T01:21:55.653Z,1021.69
2016-11-12T01:22:05.646Z,1021.71
2016-11-12T01:22:15.639Z,1021.69
2016-11-12T01:22:25.649Z,1021.69
2016-11-12T01:22:35.626Z,1021.62
2016-11-12T01:22:45.619Z,1021.68
2016-11-12T01:22:55.612Z,1021.69
2016-11-12T01:23:05.608Z,1021.63
2016-11-12T01:23:15.598Z,1021.64
2016-11-12T01:23:25.590Z,1021.64
2016-11-12T01:23:35.585Z,1021.67
2016-11-12T01:23:45.577Z,1021.72
2016-11-12T01:23:55.571Z,1021.67
2016-11-12T01:24:05.564Z,1021.65
2016-11-12T01:24:15.557Z,1021.7
2016-11-12T01:24:25.551Z,1021.63
2016-11-12T01:24:35.544Z,1021.67
2016-11-12T01:24:45.537Z,1021.65
2016-11-12T01:24:55.531Z,1021.66
2016-11-12T01:25:05.523Z,1021.6
2016-11-12T01:25:15.515Z,1021.68
2016-11-12T01:25:25.511Z,1021.63
2016-11-12T01:25:35.503Z,1021.66
2016-11-12T01:25:45.497Z,1021.67
2016-11-12T01:25:55.490Z,1021.64
2016-11-12T01:26:05.484Z,1021.63
2016-11-12T01:26:15.478Z,1021.66
2016-11-12T01:26:25.471Z,1021.68
2016-11-12T01:26:35.462Z,1021.66
2016-11-12T01:26:45.456Z,1021.68
2016-11-12T01:26:55.471Z,1021.61
2016-11-12T01:27:05.442Z,1021.68
2016-11-12T01:27:15.435Z,1021.64
2016-11-12T01:27:25.428Z,1021.7
2016-11-12T01:27:35.423Z,1021.63
2016-11-12T01:27:45.414Z,1021.65
2016-11-12T01:27:55.408Z,1021.64
2016-11-12T01:28:05.403Z,1021.64
2016-11-12T01:28:15.395Z,1021.63
2016-11-12T01:28:25.388Z,1021.61
2016-11-12T01:28:35.381Z,1021.63
2016-11-12T01:28:45.375Z,1021.64
2016-11-12T01:28:55.367Z,1021.63
2016-11-12T01:29:05.360Z,1021.64
2016-11-12T01:29:15.702Z,1021.63
2016-11-12T01:29:25.347Z,1021.63
2016-11-12T01:29:35.341Z,1021.64
2016-11-12T01:29:45.334Z,1021.62
2016-11-12T01:29:55.328Z,1021.65
2016-11-12T01:30:05.322Z,1021.63
2016-11-12T01:30:15.314Z,1021.65
2016-11-12T01:30:25.306Z,1021.71
2016-11-12T01:30:35.300Z,1021.64
2016-11-12T01:30:45.397Z,1021.62
2016-11-12T01:30:55.311Z,1021.6
2016-11-12T01:31:05.281Z,1021.63
2016-11-12T01:31:15.271Z,1021.63
2016-11-12T01:31:25.266Z,1021.69
2016-11-12T01:31:35.285Z,1021.7
2016-11-12T01:31:45.252Z,1021.65
2016-11-12T01:31:55.246Z,1021.68
2016-11-12T01:32:05.241Z,1021.64
2016-11-12T01:32:15.231Z,1021.69
2016-11-12T01:32:25.228Z,1021.65
2016-11-12T01:32:35.217Z,1021.65
2016-11-12T01:32:45.212Z,1021.68
2016-11-12T01:32:55.205Z,1021.64
2016-11-12T01:33:05.200Z,1021.69
2016-11-12T01:33:15.192Z,1021.67
2016-11-12T01:33:25.186Z,1021.66
2016-11-12T01:33:35.178Z,1021.7
2016-11-12T01:33:45.172Z,1021.68
2016-11-12T01:33:55.164Z,1021.61
2016-11-12T01:34:05.159Z,1021.67
2016-11-12T01:34:15.152Z,1021.63
2016-11-12T01:34:25.143Z,1021.68
2016-11-12T01:34:35.138Z,1021.67
2016-11-12T01:34:45.131Z,1021.63
2016-11-12T01:34:55.125Z,1021.67
2016-11-12T01:35:05.119Z,1021.63
2016-11-12T01:35:15.111Z,1021.69
2016-11-12T01:35:25.103Z,1021.64
2016-11-12T01:35:35.096Z,1021.66
2016-11-12T01:35:45.088Z,1021.66
2016-11-12T01:35:55.084Z,1021.63
2016-11-12T01:36:05.078Z,1021.63
2016-11-12T01:36:15.072Z,1021.6
2016-11-12T01:36:25.064Z,1021.61
2016-11-12T01:36:35.055Z,1021.65
2016-11-12T01:36:45.050Z,1021.67
2016-11-12T01:36:55.044Z,1021.58
2016-11-12T01:37:05.036Z,1021.65
2016-11-12T01:37:15.030Z,1021.68
2016-11-12T01:37:25.023Z,1021.65
2016-11-12T01:37:35.016Z,1021.66
2016-11-12T01:37:45.011Z,1021.66
2016-11-12T01:37:55.004Z,1021.68
2016-11-12T01:38:04.996Z,1021.66
2016-11-12T01:38:14.991Z,1021.68
2016-11-12T01:38:24.983Z,1021.67
2016-11-12T01:38:34.975Z,1021.66
2016-11-12T01:38:44.970Z,1021.65
2016-11-12T01:38:54.962Z,1021.63
2016-11-12T01:39:05.063Z,1021.64
2016-11-12T01:39:14.948Z,1021.69
2016-11-12T01:39:24.943Z,1021.66
2016-11-12T01:39:34.936Z,1021.68
2016-11-12T01:39:44.929Z,1021.61
2016-11-12T01:39:54.923Z,1021.68
2016-11-12T01:40:04.915Z,1021.64
2016-11-12T01:40:14.908Z,1021.65
2016-11-12T01:40:25.565Z,1021.68
2016-11-12T01:40:34.915Z,1021.63
2016-11-12T01:40:44.887Z,1021.64
2016-11-12T01:40:54.882Z,1021.67
2016-11-12T01:41:04.874Z,1021.65
2016-11-12T01:41:14.867Z,1021.66
2016-11-12T01:41:24.860Z,1021.66
2016-11-12T01:41:34.854Z,1021.67
2016-11-12T01:41:44.847Z,1021.67
2016-11-12T01:41:54.840Z,1021.65
2016-11-12T01:42:04.833Z,1021.65
2016-11-12T01:42:14.827Z,1021.67
2016-11-12T01:42:24.821Z,1021.66
2016-11-12T01:42:34.813Z,1021.66
2016-11-12T01:42:44.808Z,1021.68
2016-11-12T01:42:54.799Z,1021.61
2016-11-12T01:43:04.793Z,1021.68
2016-11-12T01:43:14.786Z,1021.67
2016-11-12T01:43:24.782Z,1021.69
2016-11-12T01:43:34.772Z,1021.67
2016-11-12T01:43:44.766Z,1021.64
2016-11-12T01:43:54.759Z,1021.6
2016-11-12T01:44:04.754Z,1021.63
2016-11-12T01:44:14.746Z,1021.68
2016-11-12T01:44:24.741Z,1021.65
2016-11-12T01:44:34.732Z,1021.64
2016-11-12T01:44:44.725Z,1021.69
2016-11-12T01:44:54.719Z,1021.65
2016-11-12T01:45:04.712Z,1021.67
2016-11-12T01:45:14.707Z,1021.67
2016-11-12T01:45:24.701Z,1021.66
2016-11-12T01:45:34.692Z,1021.65
2016-11-12T01:45:44.685Z,1021.65
2016-11-12T01:45:54.678Z,1021.67
2016-11-12T01:46:04.670Z,1021.71
2016-11-12T01:46:14.665Z,1021.63
2016-11-12T01:46:24.658Z,1021.63
2016-11-12T01:46:34.651Z,1021.67
2016-11-12T01:46:44.646Z,1021.6
2016-11-12T01:46:54.637Z,1021.69
2016-11-12T01:47:04.631Z,1021.66
2016-11-12T01:47:14.624Z,1021.67
2016-11-12T01:47:24.617Z,1021.7
2016-11-12T01:47:34.611Z,1021.68
2016-11-12T01:47:44.605Z,1021.66
2016-11-12T01:47:54.597Z,1021.61
2016-11-12T01:48:04.591Z,1021.66
2016-11-12T01:48:14.584Z,1021.66
2016-11-12T01:48:24.578Z,1021.7
2016-11-12T01:48:34.572Z,1021.68
2016-11-12T01:48:44.563Z,1021.64
2016-11-12T01:48:54.558Z,1021.65
2016-11-12T01:49:04.549Z,1021.68
2016-11-12T01:49:14.544Z,1021.6
2016-11-12T01:49:24.539Z,1021.68
2016-11-12T01:49:34.532Z,1021.64
2016-11-12T01:49:44.522Z,1021.64
2016-11-12T01:49:54.515Z,1021.66
2016-11-12T01:50:04.509Z,1021.64
2016-11-12T01:50:14.503Z,1021.69
2016-11-12T01:50:24.495Z,1021.67
2016-11-12T01:50:34.490Z,1021.64
2016-11-12T01:50:44.481Z,1021.63
2016-11-12T01:50:54.476Z,1021.68
2016-11-12T01:51:04.469Z,1021.68
2016-11-12T01:51:14.461Z,1021.61
2016-11-12T01:51:24.455Z,1021.61
2016-11-12T01:51:34.451Z,1021.66
2016-11-12T01:51:44.441Z,1021.58
2016-11-12T01:51:54.434Z,1021.63
2016-11-12T01:52:04.429Z,1021.62
2016-11-12T01:52:14.421Z,1021.6
2016-11-12T01:52:24.415Z,1021.66
2016-11-12T01:52:34.410Z,1021.64
2016-11-12T01:52:44.401Z,1021.6
2016-11-12T01:52:54.395Z,1021.69
2016-11-12T01:53:04.387Z,1021.59
2016-11-12T01:53:14.382Z,1021.61
2016-11-12T01:53:24.375Z,1021.63
2016-11-12T01:53:34.371Z,1021.57
2016-11-12T01:53:44.363Z,1021.64
2016-11-12T01:53:54.355Z,1021.61
2016-11-12T01:54:04.347Z,1021.56
2016-11-12T01:54:14.341Z,1021.64
2016-11-12T01:54:24.335Z,1021.6
2016-11-12T01:54:34.327Z,1021.56
2016-11-12T01:54:44.321Z,1021.56
2016-11-12T01:54:54.314Z,1021.56
2016-11-12T01:55:04.308Z,1021.57
2016-11-12T01:55:14.299Z,1021.62
2016-11-12T01:55:24.294Z,1021.62
2016-11-12T01:55:34.287Z,1021.57
2016-11-12T01:55:44.284Z,1021.63
2016-11-12T01:55:54.273Z,1021.58
2016-11-12T01:56:04.266Z,1021.59
2016-11-12T01:56:14.259Z,1021.56
2016-11-12T01:56:24.253Z,1021.61
2016-11-12T01:56:34.247Z,1021.57
2016-11-12T01:56:44.242Z,1021.56
2016-11-12T01:56:54.233Z,1021.53
2016-11-12T01:57:04.226Z,1021.54
2016-11-12T01:57:14.219Z,1021.57
2016-11-12T01:57:24.210Z,1021.54
2016-11-12T01:57:34.206Z,1021.63
2016-11-12T01:57:44.197Z,1021.58
2016-11-12T01:57:54.191Z,1021.55
2016-11-12T01:58:04.185Z,1021.58
2016-11-12T01:58:14.180Z,1021.58
2016-11-12T01:58:24.171Z,1021.52
2016-11-12T01:58:34.165Z,1021.54
2016-11-12T01:58:44.158Z,1021.57
2016-11-12T01:58:54.151Z,1021.5
2016-11-12T01:59:04.143Z,1021.55
2016-11-12T01:59:14.137Z,1021.57
2016-11-12T01:59:24.131Z,1021.53
2016-11-12T01:59:34.124Z,1021.56
2016-11-12T01:59:44.117Z,1021.53
2016-11-12T01:59:54.110Z,1021.48
2016-11-12T02:00:04.105Z,1021.54
2016-11-12T02:00:14.097Z,1021.61
2016-11-12T02:00:24.090Z,1021.5
2016-11-12T02:00:34.084Z,1021.55
2016-11-12T02:00:44.079Z,1021.51
2016-11-12T02:00:54.070Z,1021.5
2016-11-12T02:01:04.063Z,1021.54
2016-11-12T02:01:14.057Z,1021.5
2016-11-12T02:01:24.384Z,1021.55